sensor_id;sensor_type;location;lat;lon;timestamp;P1;durP1;ratioP1;P2;durP2;ratioP2
3771;SDS011;1901;48.172;12.824;2023-04-25T00:01:23;3.80;;;2.73;;
3771;SDS011;1901;48.172;12.824;2023-04-25T00:03:50;3.80;;;2.93;;
3771;SDS011;1901;48.172;12.824;2023-04-25T00:06:17;7.40;;;3.43;;
3771;SDS011;1901;48.172;12.824;2023-04-25T00:08:45;5.23;;;3.40;;
3771;SDS011;1901;48.172;12.824;2023-04-25T00:11:12;3.20;;;2.80;;
3771;SDS011;1901;48.172;12.824;2023-04-25T00:13:40;5.03;;;3.60;;
3771;SDS011;1901;48.172;12.824;2023-04-25T00:16:07;3.13;;;2.80;;
3771;SDS011;1901;48.172;12.824;2023-04-25T00:18:35;4.13;;;3.20;;
3771;SDS011;1901;48.172;12.824;2023-04-25T00:21:02;4.63;;;3.00;;
3771;SDS011;1901;48.172;12.824;2023-04-25T00:23:31;3.40;;;3.10;;
3771;SDS011;1901;48.172;12.824;2023-04-25T00:26:01;3.53;;;3.10;;
3771;SDS011;1901;48.172;12.824;2023-04-25T00:28:29;3.20;;;2.87;;
3771;SDS011;1901;48.172;12.824;2023-04-25T00:30:56;7.27;;;3.70;;
3771;SDS011;1901;48.172;12.824;2023-04-25T00:33:23;3.57;;;2.80;;
3771;SDS011;1901;48.172;12.824;2023-04-25T00:35:50;4.17;;;3.13;;
3771;SDS011;1901;48.172;12.824;2023-04-25T00:38:17;3.73;;;2.87;;
3771;SDS011;1901;48.172;12.824;2023-04-25T00:40:44;3.87;;;3.20;;
3771;SDS011;1901;48.172;12.824;2023-04-25T00:43:13;5.00;;;2.90;;
3771;SDS011;1901;48.172;12.824;2023-04-25T00:45:40;6.60;;;3.10;;
3771;SDS011;1901;48.172;12.824;2023-04-25T00:48:09;4.30;;;3.40;;
3771;SDS011;1901;48.172;12.824;2023-04-25T00:50:37;6.07;;;3.43;;
3771;SDS011;1901;48.172;12.824;2023-04-25T00:53:04;5.13;;;3.07;;
3771;SDS011;1901;48.172;12.824;2023-04-25T00:55:31;4.57;;;3.30;;
3771;SDS011;1901;48.172;12.824;2023-04-25T00:57:59;3.37;;;2.93;;
3771;SDS011;1901;48.172;12.824;2023-04-25T01:00:28;6.37;;;3.23;;
3771;SDS011;1901;48.172;12.824;2023-04-25T01:02:55;3.90;;;3.27;;
3771;SDS011;1901;48.172;12.824;2023-04-25T01:05:22;3.30;;;2.63;;
3771;SDS011;1901;48.172;12.824;2023-04-25T01:07:50;6.70;;;5.33;;
3771;SDS011;1901;48.172;12.824;2023-04-25T01:10:17;4.30;;;3.90;;
3771;SDS011;1901;48.172;12.824;2023-04-25T01:12:44;4.90;;;2.90;;
3771;SDS011;1901;48.172;12.824;2023-04-25T01:15:11;3.07;;;2.77;;
3771;SDS011;1901;48.172;12.824;2023-04-25T01:17:40;4.10;;;3.47;;
3771;SDS011;1901;48.172;12.824;2023-04-25T01:20:09;3.70;;;3.27;;
3771;SDS011;1901;48.172;12.824;2023-04-25T01:22:39;3.97;;;3.30;;
3771;SDS011;1901;48.172;12.824;2023-04-25T01:25:06;7.63;;;4.53;;
3771;SDS011;1901;48.172;12.824;2023-04-25T01:27:34;6.70;;;4.13;;
3771;SDS011;1901;48.172;12.824;2023-04-25T01:30:02;4.73;;;3.57;;
3771;SDS011;1901;48.172;12.824;2023-04-25T01:32:29;3.83;;;3.33;;
3771;SDS011;1901;48.172;12.824;2023-04-25T01:35:03;3.40;;;2.97;;
3771;SDS011;1901;48.172;12.824;2023-04-25T01:37:34;3.73;;;3.30;;
3771;SDS011;1901;48.172;12.824;2023-04-25T01:40:03;3.23;;;2.63;;
3771;SDS011;1901;48.172;12.824;2023-04-25T01:42:31;5.00;;;4.27;;
3771;SDS011;1901;48.172;12.824;2023-04-25T01:44:58;4.13;;;2.87;;
3771;SDS011;1901;48.172;12.824;2023-04-25T01:47:25;4.37;;;2.97;;
3771;SDS011;1901;48.172;12.824;2023-04-25T01:49:52;3.43;;;3.00;;
3771;SDS011;1901;48.172;12.824;2023-04-25T01:52:19;4.50;;;2.40;;
3771;SDS011;1901;48.172;12.824;2023-04-25T01:54:46;3.83;;;3.30;;
3771;SDS011;1901;48.172;12.824;2023-04-25T01:57:15;4.47;;;3.13;;
3771;SDS011;1901;48.172;12.824;2023-04-25T01:59:43;4.90;;;2.83;;
3771;SDS011;1901;48.172;12.824;2023-04-25T02:02:10;3.27;;;2.97;;
3771;SDS011;1901;48.172;12.824;2023-04-25T02:04:37;4.93;;;3.40;;
3771;SDS011;1901;48.172;12.824;2023-04-25T02:07:04;3.07;;;2.77;;
3771;SDS011;1901;48.172;12.824;2023-04-25T02:09:32;4.13;;;3.20;;
3771;SDS011;1901;48.172;12.824;2023-04-25T02:11:59;5.40;;;3.20;;
3771;SDS011;1901;48.172;12.824;2023-04-25T02:14:28;8.77;;;5.43;;
3771;SDS011;1901;48.172;12.824;2023-04-25T02:16:55;4.83;;;3.50;;
3771;SDS011;1901;48.172;12.824;2023-04-25T02:19:23;3.37;;;2.80;;
3771;SDS011;1901;48.172;12.824;2023-04-25T02:21:50;4.30;;;3.30;;
3771;SDS011;1901;48.172;12.824;2023-04-25T02:24:17;4.13;;;3.50;;
3771;SDS011;1901;48.172;12.824;2023-04-25T02:26:44;4.40;;;3.00;;
3771;SDS011;1901;48.172;12.824;2023-04-25T02:29:11;5.53;;;2.80;;
3771;SDS011;1901;48.172;12.824;2023-04-25T02:31:41;4.20;;;2.97;;
3771;SDS011;1901;48.172;12.824;2023-04-25T02:34:08;5.23;;;3.50;;
3771;SDS011;1901;48.172;12.824;2023-04-25T02:36:35;3.30;;;3.00;;
3771;SDS011;1901;48.172;12.824;2023-04-25T02:39:02;7.10;;;3.47;;
3771;SDS011;1901;48.172;12.824;2023-04-25T02:41:30;4.80;;;3.17;;
3771;SDS011;1901;48.172;12.824;2023-04-25T02:43:57;16.60;;;10.23;;
3771;SDS011;1901;48.172;12.824;2023-04-25T02:46:24;6.40;;;4.57;;
3771;SDS011;1901;48.172;12.824;2023-04-25T02:48:52;6.83;;;3.30;;
3771;SDS011;1901;48.172;12.824;2023-04-25T02:51:19;3.77;;;3.40;;
3771;SDS011;1901;48.172;12.824;2023-04-25T02:53:46;5.67;;;3.50;;
3771;SDS011;1901;48.172;12.824;2023-04-25T02:56:14;5.33;;;3.57;;
3771;SDS011;1901;48.172;12.824;2023-04-25T02:58:41;5.07;;;3.90;;
3771;SDS011;1901;48.172;12.824;2023-04-25T03:01:08;20.93;;;12.27;;
3771;SDS011;1901;48.172;12.824;2023-04-25T03:03:35;11.60;;;6.37;;
3771;SDS011;1901;48.172;12.824;2023-04-25T03:06:03;4.57;;;4.10;;
3771;SDS011;1901;48.172;12.824;2023-04-25T03:08:31;5.40;;;3.60;;
3771;SDS011;1901;48.172;12.824;2023-04-25T03:10:59;4.77;;;3.90;;
3771;SDS011;1901;48.172;12.824;2023-04-25T03:13:26;6.53;;;4.20;;
3771;SDS011;1901;48.172;12.824;2023-04-25T03:15:55;6.67;;;4.30;;
3771;SDS011;1901;48.172;12.824;2023-04-25T03:18:22;6.27;;;4.50;;
3771;SDS011;1901;48.172;12.824;2023-04-25T03:20:49;6.40;;;4.50;;
3771;SDS011;1901;48.172;12.824;2023-04-25T03:23:17;5.40;;;4.73;;
3771;SDS011;1901;48.172;12.824;2023-04-25T03:25:44;20.73;;;14.23;;
3771;SDS011;1901;48.172;12.824;2023-04-25T03:28:12;10.63;;;6.33;;
3771;SDS011;1901;48.172;12.824;2023-04-25T03:30:39;5.50;;;4.50;;
3771;SDS011;1901;48.172;12.824;2023-04-25T03:33:06;5.23;;;3.43;;
3771;SDS011;1901;48.172;12.824;2023-04-25T03:35:33;5.00;;;4.27;;
3771;SDS011;1901;48.172;12.824;2023-04-25T03:38:00;5.77;;;4.20;;
3771;SDS011;1901;48.172;12.824;2023-04-25T03:40:28;5.70;;;4.77;;
3771;SDS011;1901;48.172;12.824;2023-04-25T03:42:56;6.90;;;5.20;;
3771;SDS011;1901;48.172;12.824;2023-04-25T03:45:23;7.37;;;4.20;;
3771;SDS011;1901;48.172;12.824;2023-04-25T03:47:50;6.40;;;5.20;;
3771;SDS011;1901;48.172;12.824;2023-04-25T03:50:17;10.50;;;5.10;;
3771;SDS011;1901;48.172;12.824;2023-04-25T03:52:44;9.23;;;5.07;;
3771;SDS011;1901;48.172;12.824;2023-04-25T03:55:11;19.00;;;10.63;;
3771;SDS011;1901;48.172;12.824;2023-04-25T03:57:40;8.93;;;7.40;;
3771;SDS011;1901;48.172;12.824;2023-04-25T04:00:07;9.40;;;5.70;;
3771;SDS011;1901;48.172;12.824;2023-04-25T04:02:35;6.33;;;4.83;;
3771;SDS011;1901;48.172;12.824;2023-04-25T04:05:04;5.70;;;5.10;;
3771;SDS011;1901;48.172;12.824;2023-04-25T04:07:31;5.70;;;5.13;;
3771;SDS011;1901;48.172;12.824;2023-04-25T04:10:01;5.50;;;4.60;;
3771;SDS011;1901;48.172;12.824;2023-04-25T04:12:30;5.80;;;5.17;;
3771;SDS011;1901;48.172;12.824;2023-04-25T04:14:59;6.33;;;4.73;;
3771;SDS011;1901;48.172;12.824;2023-04-25T04:17:26;8.33;;;4.77;;
3771;SDS011;1901;48.172;12.824;2023-04-25T04:19:53;20.20;;;11.00;;
3771;SDS011;1901;48.172;12.824;2023-04-25T04:22:20;13.77;;;7.97;;
3771;SDS011;1901;48.172;12.824;2023-04-25T04:24:47;9.50;;;5.03;;
3771;SDS011;1901;48.172;12.824;2023-04-25T04:27:15;5.70;;;4.53;;
3771;SDS011;1901;48.172;12.824;2023-04-25T04:29:43;8.77;;;4.00;;
3771;SDS011;1901;48.172;12.824;2023-04-25T04:32:11;5.60;;;4.80;;
3771;SDS011;1901;48.172;12.824;2023-04-25T04:34:39;5.30;;;4.77;;
3771;SDS011;1901;48.172;12.824;2023-04-25T04:37:06;5.00;;;4.30;;
3771;SDS011;1901;48.172;12.824;2023-04-25T04:39:34;7.00;;;3.77;;
3771;SDS011;1901;48.172;12.824;2023-04-25T04:42:02;4.03;;;3.33;;
3771;SDS011;1901;48.172;12.824;2023-04-25T04:44:30;10.40;;;4.23;;
3771;SDS011;1901;48.172;12.824;2023-04-25T04:46:59;6.03;;;3.23;;
3771;SDS011;1901;48.172;12.824;2023-04-25T04:49:28;5.07;;;3.97;;
3771;SDS011;1901;48.172;12.824;2023-04-25T04:51:55;17.60;;;9.40;;
3771;SDS011;1901;48.172;12.824;2023-04-25T04:54:22;7.50;;;5.40;;
3771;SDS011;1901;48.172;12.824;2023-04-25T04:56:49;6.40;;;4.70;;
3771;SDS011;1901;48.172;12.824;2023-04-25T04:59:18;4.30;;;3.90;;
3771;SDS011;1901;48.172;12.824;2023-04-25T05:01:45;6.00;;;4.90;;
3771;SDS011;1901;48.172;12.824;2023-04-25T05:04:12;9.90;;;4.50;;
3771;SDS011;1901;48.172;12.824;2023-04-25T05:06:41;7.87;;;6.43;;
3771;SDS011;1901;48.172;12.824;2023-04-25T05:09:09;7.20;;;5.43;;
3771;SDS011;1901;48.172;12.824;2023-04-25T05:11:36;8.17;;;6.80;;
3771;SDS011;1901;48.172;12.824;2023-04-25T05:14:03;30.80;;;9.80;;
3771;SDS011;1901;48.172;12.824;2023-04-25T05:16:30;7.67;;;5.20;;
3771;SDS011;1901;48.172;12.824;2023-04-25T05:18:57;5.00;;;4.40;;
3771;SDS011;1901;48.172;12.824;2023-04-25T05:21:24;9.03;;;4.37;;
3771;SDS011;1901;48.172;12.824;2023-04-25T05:23:53;7.07;;;4.70;;
3771;SDS011;1901;48.172;12.824;2023-04-25T05:26:20;6.20;;;3.60;;
3771;SDS011;1901;48.172;12.824;2023-04-25T05:28:48;9.73;;;3.80;;
3771;SDS011;1901;48.172;12.824;2023-04-25T05:31:16;3.63;;;3.30;;
3771;SDS011;1901;48.172;12.824;2023-04-25T05:33:44;3.90;;;3.30;;
3771;SDS011;1901;48.172;12.824;2023-04-25T05:36:11;4.37;;;3.00;;
3771;SDS011;1901;48.172;12.824;2023-04-25T05:38:38;6.50;;;4.10;;
3771;SDS011;1901;48.172;12.824;2023-04-25T05:41:06;7.80;;;4.50;;
3771;SDS011;1901;48.172;12.824;2023-04-25T05:43:33;3.13;;;2.83;;
3771;SDS011;1901;48.172;12.824;2023-04-25T05:46:01;2.83;;;2.40;;
3771;SDS011;1901;48.172;12.824;2023-04-25T05:48:28;2.50;;;2.03;;
3771;SDS011;1901;48.172;12.824;2023-04-25T05:50:55;2.97;;;2.67;;
3771;SDS011;1901;48.172;12.824;2023-04-25T05:53:22;2.97;;;2.00;;
3771;SDS011;1901;48.172;12.824;2023-04-25T05:55:49;3.40;;;2.40;;
3771;SDS011;1901;48.172;12.824;2023-04-25T05:58:18;2.80;;;2.17;;
3771;SDS011;1901;48.172;12.824;2023-04-25T06:00:45;2.67;;;2.43;;
3771;SDS011;1901;48.172;12.824;2023-04-25T06:03:12;2.67;;;2.10;;
3771;SDS011;1901;48.172;12.824;2023-04-25T06:05:40;3.43;;;1.83;;
3771;SDS011;1901;48.172;12.824;2023-04-25T06:08:07;2.43;;;1.57;;
3771;SDS011;1901;48.172;12.824;2023-04-25T06:10:35;2.67;;;1.47;;
3771;SDS011;1901;48.172;12.824;2023-04-25T06:13:02;2.80;;;1.73;;
3771;SDS011;1901;48.172;12.824;2023-04-25T06:15:31;3.97;;;1.60;;
3771;SDS011;1901;48.172;12.824;2023-04-25T06:17:58;2.67;;;1.37;;
3771;SDS011;1901;48.172;12.824;2023-04-25T06:20:25;2.83;;;1.90;;
3771;SDS011;1901;48.172;12.824;2023-04-25T06:22:52;8.50;;;4.97;;
3771;SDS011;1901;48.172;12.824;2023-04-25T06:25:19;2.00;;;1.50;;
3771;SDS011;1901;48.172;12.824;2023-04-25T06:27:47;3.10;;;1.47;;
3771;SDS011;1901;48.172;12.824;2023-04-25T06:30:14;6.50;;;1.80;;
3771;SDS011;1901;48.172;12.824;2023-04-25T06:32:44;3.30;;;2.00;;
3771;SDS011;1901;48.172;12.824;2023-04-25T06:35:11;1.80;;;1.50;;
3771;SDS011;1901;48.172;12.824;2023-04-25T06:37:38;2.53;;;1.63;;
3771;SDS011;1901;48.172;12.824;2023-04-25T06:40:06;2.60;;;1.90;;
3771;SDS011;1901;48.172;12.824;2023-04-25T06:42:33;4.43;;;2.27;;
3771;SDS011;1901;48.172;12.824;2023-04-25T06:45:00;2.80;;;1.40;;
3771;SDS011;1901;48.172;12.824;2023-04-25T06:47:27;2.30;;;1.70;;
3771;SDS011;1901;48.172;12.824;2023-04-25T06:49:56;8.40;;;1.93;;
3771;SDS011;1901;48.172;12.824;2023-04-25T06:52:23;3.13;;;1.80;;
3771;SDS011;1901;48.172;12.824;2023-04-25T06:54:50;2.23;;;1.80;;
3771;SDS011;1901;48.172;12.824;2023-04-25T06:57:17;3.90;;;1.60;;
3771;SDS011;1901;48.172;12.824;2023-04-25T06:59:45;4.60;;;2.40;;
3771;SDS011;1901;48.172;12.824;2023-04-25T07:02:12;3.00;;;2.30;;
3771;SDS011;1901;48.172;12.824;2023-04-25T07:04:39;3.17;;;1.87;;
3771;SDS011;1901;48.172;12.824;2023-04-25T07:07:07;2.37;;;1.80;;
3771;SDS011;1901;48.172;12.824;2023-04-25T07:09:34;2.57;;;1.93;;
3771;SDS011;1901;48.172;12.824;2023-04-25T07:12:02;6.53;;;2.40;;
3771;SDS011;1901;48.172;12.824;2023-04-25T07:14:29;5.70;;;2.23;;
3771;SDS011;1901;48.172;12.824;2023-04-25T07:16:56;3.70;;;1.90;;
3771;SDS011;1901;48.172;12.824;2023-04-25T07:19:23;2.50;;;2.30;;
3771;SDS011;1901;48.172;12.824;2023-04-25T07:21:51;3.17;;;2.10;;
3771;SDS011;1901;48.172;12.824;2023-04-25T07:24:20;4.73;;;2.27;;
3771;SDS011;1901;48.172;12.824;2023-04-25T07:26:47;3.30;;;2.30;;
3771;SDS011;1901;48.172;12.824;2023-04-25T07:29:14;2.87;;;1.97;;
3771;SDS011;1901;48.172;12.824;2023-04-25T07:31:41;5.10;;;2.73;;
3771;SDS011;1901;48.172;12.824;2023-04-25T07:34:08;4.70;;;2.40;;
3771;SDS011;1901;48.172;12.824;2023-04-25T07:36:35;3.20;;;2.13;;
3771;SDS011;1901;48.172;12.824;2023-04-25T07:39:02;2.83;;;2.27;;
3771;SDS011;1901;48.172;12.824;2023-04-25T07:41:31;3.40;;;2.40;;
3771;SDS011;1901;48.172;12.824;2023-04-25T07:43:58;4.67;;;2.30;;
3771;SDS011;1901;48.172;12.824;2023-04-25T07:46:25;4.17;;;2.50;;
3771;SDS011;1901;48.172;12.824;2023-04-25T07:48:52;4.30;;;3.30;;
3771;SDS011;1901;48.172;12.824;2023-04-25T07:51:19;3.13;;;2.60;;
3771;SDS011;1901;48.172;12.824;2023-04-25T07:53:47;5.07;;;2.60;;
3771;SDS011;1901;48.172;12.824;2023-04-25T07:56:14;3.50;;;2.60;;
3771;SDS011;1901;48.172;12.824;2023-04-25T07:58:42;2.83;;;2.27;;
3771;SDS011;1901;48.172;12.824;2023-04-25T08:01:10;3.93;;;2.37;;
3771;SDS011;1901;48.172;12.824;2023-04-25T08:03:37;5.30;;;3.70;;
3771;SDS011;1901;48.172;12.824;2023-04-25T08:06:04;2.17;;;1.77;;
3771;SDS011;1901;48.172;12.824;2023-04-25T08:08:31;4.57;;;2.80;;
3771;SDS011;1901;48.172;12.824;2023-04-25T08:10:58;3.83;;;2.60;;
3771;SDS011;1901;48.172;12.824;2023-04-25T08:13:25;4.90;;;2.73;;
3771;SDS011;1901;48.172;12.824;2023-04-25T08:15:54;3.10;;;2.53;;
3771;SDS011;1901;48.172;12.824;2023-04-25T08:18:21;2.67;;;2.20;;
3771;SDS011;1901;48.172;12.824;2023-04-25T08:20:48;8.20;;;2.13;;
3771;SDS011;1901;48.172;12.824;2023-04-25T08:23:15;3.30;;;2.17;;
3771;SDS011;1901;48.172;12.824;2023-04-25T08:25:42;4.70;;;1.80;;
3771;SDS011;1901;48.172;12.824;2023-04-25T08:28:09;5.20;;;2.33;;
3771;SDS011;1901;48.172;12.824;2023-04-25T08:30:36;4.43;;;2.47;;
3771;SDS011;1901;48.172;12.824;2023-04-25T08:33:05;4.57;;;2.50;;
3771;SDS011;1901;48.172;12.824;2023-04-25T08:35:32;6.10;;;3.63;;
3771;SDS011;1901;48.172;12.824;2023-04-25T08:38:00;4.70;;;2.53;;
3771;SDS011;1901;48.172;12.824;2023-04-25T08:40:27;5.63;;;2.20;;
3771;SDS011;1901;48.172;12.824;2023-04-25T08:42:55;7.93;;;2.47;;
3771;SDS011;1901;48.172;12.824;2023-04-25T08:45:24;4.27;;;2.50;;
3771;SDS011;1901;48.172;12.824;2023-04-25T08:47:53;3.50;;;2.80;;
3771;SDS011;1901;48.172;12.824;2023-04-25T08:50:23;6.67;;;2.53;;
3771;SDS011;1901;48.172;12.824;2023-04-25T08:52:51;4.20;;;2.93;;
3771;SDS011;1901;48.172;12.824;2023-04-25T08:55:20;4.00;;;3.03;;
3771;SDS011;1901;48.172;12.824;2023-04-25T08:57:47;5.50;;;2.80;;
3771;SDS011;1901;48.172;12.824;2023-04-25T09:00:15;5.63;;;3.50;;
3771;SDS011;1901;48.172;12.824;2023-04-25T09:02:43;4.80;;;2.60;;
3771;SDS011;1901;48.172;12.824;2023-04-25T09:05:11;6.73;;;2.43;;
3771;SDS011;1901;48.172;12.824;2023-04-25T09:07:40;4.00;;;2.97;;
3771;SDS011;1901;48.172;12.824;2023-04-25T09:10:08;3.17;;;2.27;;
3771;SDS011;1901;48.172;12.824;2023-04-25T09:12:35;4.33;;;2.87;;
3771;SDS011;1901;48.172;12.824;2023-04-25T09:15:06;2.83;;;2.53;;
3771;SDS011;1901;48.172;12.824;2023-04-25T09:17:33;6.03;;;2.20;;
3771;SDS011;1901;48.172;12.824;2023-04-25T09:20:05;3.60;;;2.93;;
3771;SDS011;1901;48.172;12.824;2023-04-25T09:22:34;2.67;;;2.20;;
3771;SDS011;1901;48.172;12.824;2023-04-25T09:25:04;3.20;;;2.20;;
3771;SDS011;1901;48.172;12.824;2023-04-25T09:27:34;2.10;;;1.70;;
3771;SDS011;1901;48.172;12.824;2023-04-25T09:30:02;4.10;;;2.17;;
3771;SDS011;1901;48.172;12.824;2023-04-25T09:32:29;3.43;;;2.00;;
3771;SDS011;1901;48.172;12.824;2023-04-25T09:34:57;2.00;;;1.80;;
3771;SDS011;1901;48.172;12.824;2023-04-25T09:37:24;1.90;;;1.70;;
3771;SDS011;1901;48.172;12.824;2023-04-25T09:39:53;2.50;;;1.80;;
3771;SDS011;1901;48.172;12.824;2023-04-25T09:42:23;2.60;;;1.70;;
3771;SDS011;1901;48.172;12.824;2023-04-25T09:44:51;4.10;;;2.40;;
3771;SDS011;1901;48.172;12.824;2023-04-25T09:47:19;3.00;;;1.90;;
3771;SDS011;1901;48.172;12.824;2023-04-25T09:49:48;3.20;;;2.53;;
3771;SDS011;1901;48.172;12.824;2023-04-25T09:52:16;3.10;;;2.40;;
3771;SDS011;1901;48.172;12.824;2023-04-25T09:54:43;3.20;;;1.90;;
3771;SDS011;1901;48.172;12.824;2023-04-25T09:57:11;2.33;;;1.70;;
3771;SDS011;1901;48.172;12.824;2023-04-25T09:59:42;2.50;;;1.63;;
3771;SDS011;1901;48.172;12.824;2023-04-25T10:02:10;1.70;;;1.33;;
3771;SDS011;1901;48.172;12.824;2023-04-25T10:04:38;2.70;;;1.90;;
3771;SDS011;1901;48.172;12.824;2023-04-25T10:07:06;7.27;;;5.00;;
3771;SDS011;1901;48.172;12.824;2023-04-25T10:09:35;5.37;;;2.90;;
3771;SDS011;1901;48.172;12.824;2023-04-25T10:12:04;2.47;;;1.90;;
3771;SDS011;1901;48.172;12.824;2023-04-25T10:14:32;5.77;;;3.97;;
3771;SDS011;1901;48.172;12.824;2023-04-25T10:17:01;9.00;;;2.23;;
3771;SDS011;1901;48.172;12.824;2023-04-25T10:19:28;3.60;;;2.20;;
3771;SDS011;1901;48.172;12.824;2023-04-25T10:21:58;3.47;;;1.57;;
3771;SDS011;1901;48.172;12.824;2023-04-25T10:24:29;4.93;;;2.97;;
3771;SDS011;1901;48.172;12.824;2023-04-25T10:26:56;2.67;;;1.80;;
3771;SDS011;1901;48.172;12.824;2023-04-25T10:29:24;2.30;;;2.10;;
3771;SDS011;1901;48.172;12.824;2023-04-25T10:31:51;2.13;;;1.70;;
3771;SDS011;1901;48.172;12.824;2023-04-25T10:34:23;2.27;;;1.77;;
3771;SDS011;1901;48.172;12.824;2023-04-25T10:36:51;2.40;;;1.90;;
3771;SDS011;1901;48.172;12.824;2023-04-25T10:39:22;2.63;;;2.20;;
3771;SDS011;1901;48.172;12.824;2023-04-25T10:41:53;3.20;;;2.13;;
3771;SDS011;1901;48.172;12.824;2023-04-25T10:44:21;4.17;;;1.90;;
3771;SDS011;1901;48.172;12.824;2023-04-25T10:46:48;3.40;;;2.70;;
3771;SDS011;1901;48.172;12.824;2023-04-25T10:49:29;2.93;;;2.30;;
3771;SDS011;1901;48.172;12.824;2023-04-25T10:52:16;4.63;;;3.00;;
3771;SDS011;1901;48.172;12.824;2023-04-25T10:54:46;2.77;;;2.27;;
3771;SDS011;1901;48.172;12.824;2023-04-25T10:57:27;4.77;;;2.50;;
3771;SDS011;1901;48.172;12.824;2023-04-25T10:59:57;4.57;;;2.23;;
3771;SDS011;1901;48.172;12.824;2023-04-25T11:02:26;2.93;;;1.80;;
3771;SDS011;1901;48.172;12.824;2023-04-25T11:04:55;2.10;;;1.50;;
3771;SDS011;1901;48.172;12.824;2023-04-25T11:07:23;3.23;;;2.03;;
3771;SDS011;1901;48.172;12.824;2023-04-25T11:09:52;2.00;;;1.70;;
3771;SDS011;1901;48.172;12.824;2023-04-25T11:12:20;1.57;;;1.30;;
3771;SDS011;1901;48.172;12.824;2023-04-25T11:14:47;1.70;;;1.57;;
3771;SDS011;1901;48.172;12.824;2023-04-25T11:17:14;2.50;;;1.20;;
3771;SDS011;1901;48.172;12.824;2023-04-25T11:19:41;1.90;;;1.50;;
3771;SDS011;1901;48.172;12.824;2023-04-25T11:22:10;2.53;;;1.53;;
3771;SDS011;1901;48.172;12.824;2023-04-25T11:24:37;1.80;;;1.40;;
3771;SDS011;1901;48.172;12.824;2023-04-25T11:27:04;1.60;;;1.30;;
3771;SDS011;1901;48.172;12.824;2023-04-25T11:29:32;1.90;;;1.60;;
3771;SDS011;1901;48.172;12.824;2023-04-25T11:31:59;2.27;;;1.60;;
3771;SDS011;1901;48.172;12.824;2023-04-25T11:34:27;2.20;;;1.70;;
3771;SDS011;1901;48.172;12.824;2023-04-25T11:36:55;1.67;;;1.40;;
3771;SDS011;1901;48.172;12.824;2023-04-25T11:39:24;1.60;;;1.27;;
3771;SDS011;1901;48.172;12.824;2023-04-25T11:41:52;1.70;;;1.23;;
3771;SDS011;1901;48.172;12.824;2023-04-25T11:44:19;1.60;;;1.20;;
3771;SDS011;1901;48.172;12.824;2023-04-25T11:46:46;1.60;;;1.33;;
3771;SDS011;1901;48.172;12.824;2023-04-25T11:49:14;1.87;;;1.50;;
3771;SDS011;1901;48.172;12.824;2023-04-25T11:51:43;3.10;;;1.00;;
3771;SDS011;1901;48.172;12.824;2023-04-25T11:54:11;1.50;;;1.10;;
3771;SDS011;1901;48.172;12.824;2023-04-25T11:56:41;1.40;;;1.10;;
3771;SDS011;1901;48.172;12.824;2023-04-25T11:59:08;2.37;;;1.30;;
3771;SDS011;1901;48.172;12.824;2023-04-25T12:01:36;2.00;;;1.70;;
3771;SDS011;1901;48.172;12.824;2023-04-25T12:04:11;1.80;;;1.60;;
3771;SDS011;1901;48.172;12.824;2023-04-25T12:06:38;2.83;;;1.50;;
3771;SDS011;1901;48.172;12.824;2023-04-25T12:09:07;3.30;;;1.67;;
3771;SDS011;1901;48.172;12.824;2023-04-25T12:11:41;6.03;;;1.70;;
3771;SDS011;1901;48.172;12.824;2023-04-25T12:14:09;4.20;;;1.77;;
3771;SDS011;1901;48.172;12.824;2023-04-25T12:16:39;4.43;;;2.27;;
3771;SDS011;1901;48.172;12.824;2023-04-25T12:19:07;2.67;;;1.67;;
3771;SDS011;1901;48.172;12.824;2023-04-25T12:21:34;2.50;;;2.20;;
3771;SDS011;1901;48.172;12.824;2023-04-25T12:24:09;4.10;;;1.73;;
3771;SDS011;1901;48.172;12.824;2023-04-25T12:26:50;4.10;;;3.00;;
3771;SDS011;1901;48.172;12.824;2023-04-25T12:29:18;3.33;;;2.03;;
3771;SDS011;1901;48.172;12.824;2023-04-25T12:31:45;2.47;;;1.90;;
3771;SDS011;1901;48.172;12.824;2023-04-25T12:34:12;2.23;;;1.70;;
3771;SDS011;1901;48.172;12.824;2023-04-25T12:36:39;2.30;;;1.90;;
3771;SDS011;1901;48.172;12.824;2023-04-25T12:39:06;3.47;;;2.20;;
3771;SDS011;1901;48.172;12.824;2023-04-25T12:41:34;6.13;;;3.67;;
3771;SDS011;1901;48.172;12.824;2023-04-25T12:44:02;5.50;;;3.10;;
3771;SDS011;1901;48.172;12.824;2023-04-25T12:46:29;3.87;;;2.20;;
3771;SDS011;1901;48.172;12.824;2023-04-25T12:48:57;4.77;;;2.60;;
3771;SDS011;1901;48.172;12.824;2023-04-25T12:51:24;3.13;;;2.17;;
3771;SDS011;1901;48.172;12.824;2023-04-25T12:53:52;4.60;;;2.13;;
3771;SDS011;1901;48.172;12.824;2023-04-25T12:56:20;8.27;;;3.63;;
3771;SDS011;1901;48.172;12.824;2023-04-25T12:58:47;3.63;;;2.37;;
3771;SDS011;1901;48.172;12.824;2023-04-25T13:01:16;3.50;;;2.60;;
3771;SDS011;1901;48.172;12.824;2023-04-25T13:03:43;3.80;;;2.60;;
3771;SDS011;1901;48.172;12.824;2023-04-25T13:06:10;3.13;;;2.80;;
3771;SDS011;1901;48.172;12.824;2023-04-25T13:08:37;3.90;;;2.90;;
3771;SDS011;1901;48.172;12.824;2023-04-25T13:11:06;4.43;;;2.97;;
3771;SDS011;1901;48.172;12.824;2023-04-25T13:13:33;4.30;;;3.70;;
3771;SDS011;1901;48.172;12.824;2023-04-25T13:16:00;5.57;;;3.00;;
3771;SDS011;1901;48.172;12.824;2023-04-25T13:18:29;12.13;;;9.83;;
3771;SDS011;1901;48.172;12.824;2023-04-25T13:20:59;6.60;;;3.90;;
3771;SDS011;1901;48.172;12.824;2023-04-25T13:23:27;3.10;;;2.40;;
3771;SDS011;1901;48.172;12.824;2023-04-25T13:25:55;3.53;;;3.20;;
3771;SDS011;1901;48.172;12.824;2023-04-25T13:28:23;5.13;;;2.80;;
3771;SDS011;1901;48.172;12.824;2023-04-25T13:30:50;4.30;;;2.80;;
3771;SDS011;1901;48.172;12.824;2023-04-25T13:33:17;5.07;;;3.87;;
3771;SDS011;1901;48.172;12.824;2023-04-25T13:35:46;3.30;;;2.33;;
3771;SDS011;1901;48.172;12.824;2023-04-25T13:38:18;4.13;;;2.53;;
3771;SDS011;1901;48.172;12.824;2023-04-25T13:40:46;2.13;;;1.73;;
3771;SDS011;1901;48.172;12.824;2023-04-25T13:43:13;3.00;;;2.20;;
3771;SDS011;1901;48.172;12.824;2023-04-25T13:45:40;2.60;;;1.97;;
3771;SDS011;1901;48.172;12.824;2023-04-25T13:48:07;3.07;;;2.20;;
3771;SDS011;1901;48.172;12.824;2023-04-25T13:50:34;2.17;;;1.97;;
3771;SDS011;1901;48.172;12.824;2023-04-25T13:53:03;2.43;;;1.97;;
3771;SDS011;1901;48.172;12.824;2023-04-25T13:55:30;2.80;;;1.90;;
3771;SDS011;1901;48.172;12.824;2023-04-25T13:57:57;3.50;;;2.27;;
3771;SDS011;1901;48.172;12.824;2023-04-25T14:00:24;2.67;;;2.07;;
3771;SDS011;1901;48.172;12.824;2023-04-25T14:02:52;3.00;;;2.13;;
3771;SDS011;1901;48.172;12.824;2023-04-25T14:05:19;3.87;;;1.93;;
3771;SDS011;1901;48.172;12.824;2023-04-25T14:07:46;5.30;;;2.73;;
3771;SDS011;1901;48.172;12.824;2023-04-25T14:10:14;2.20;;;1.97;;
3771;SDS011;1901;48.172;12.824;2023-04-25T14:12:41;3.10;;;2.20;;
3771;SDS011;1901;48.172;12.824;2023-04-25T14:15:09;2.70;;;2.23;;
3771;SDS011;1901;48.172;12.824;2023-04-25T14:17:36;2.57;;;1.83;;
3771;SDS011;1901;48.172;12.824;2023-04-25T14:20:04;2.73;;;2.40;;
3771;SDS011;1901;48.172;12.824;2023-04-25T14:22:32;2.40;;;1.80;;
3771;SDS011;1901;48.172;12.824;2023-04-25T14:24:59;2.90;;;2.70;;
3771;SDS011;1901;48.172;12.824;2023-04-25T14:27:28;3.33;;;2.40;;
3771;SDS011;1901;48.172;12.824;2023-04-25T14:29:55;3.50;;;3.20;;
3771;SDS011;1901;48.172;12.824;2023-04-25T14:32:22;3.40;;;2.20;;
3771;SDS011;1901;48.172;12.824;2023-04-25T14:34:49;3.30;;;3.00;;
3771;SDS011;1901;48.172;12.824;2023-04-25T14:37:16;2.33;;;2.10;;
3771;SDS011;1901;48.172;12.824;2023-04-25T14:39:44;2.83;;;2.30;;
3771;SDS011;1901;48.172;12.824;2023-04-25T14:42:11;3.40;;;1.77;;
3771;SDS011;1901;48.172;12.824;2023-04-25T14:44:39;2.30;;;2.00;;
3771;SDS011;1901;48.172;12.824;2023-04-25T14:47:06;1.80;;;1.57;;
3771;SDS011;1901;48.172;12.824;2023-04-25T14:49:33;1.90;;;1.60;;
3771;SDS011;1901;48.172;12.824;2023-04-25T14:52:00;2.73;;;1.63;;
3771;SDS011;1901;48.172;12.824;2023-04-25T14:54:28;1.90;;;1.50;;
3771;SDS011;1901;48.172;12.824;2023-04-25T14:56:55;2.40;;;1.80;;
3771;SDS011;1901;48.172;12.824;2023-04-25T14:59:22;1.97;;;1.50;;
3771;SDS011;1901;48.172;12.824;2023-04-25T15:01:51;3.63;;;2.30;;
3771;SDS011;1901;48.172;12.824;2023-04-25T15:04:18;2.87;;;1.83;;